Time;durP1;ratioP1;P1;durP2;ratioP2;P2;SDS_P1;SDS_P2;PMS_P1;PMS_P2;Temp;Humidity;BMP_temperature;BMP_pressure;BME280_temperature;BME280_humidity;BME280_pressure;Samples;Min_cycle;Max_cycle;Signal;HPM_P1;HPM_P2
2022/08/18 04:00:37;;;;;;;13.65;11.30;;;;;;;24.67;61.25;100068.88;5606136;31;76945;-57
2022/08/18 04:03:41;;;;;;;13.15;11.32;;;;;;;24.67;61.25;100068.88;5584134;32;33580;-56
2022/08/18 04:06:50;;;;;;;14.38;11.23;;;;;;;24.21;62.43;100072.88;5583866;32;34212;-57
2022/08/18 04:09:52;;;;;;;16.90;11.02;;;;;;;24.20;62.55;100079.47;5583931;31;33336;-56
2022/08/18 04:12:54;;;;;;;12.95;10.45;;;;;;;24.26;62.08;100069.75;5583280;31;33715;-57
2022/08/18 04:15:58;;;;;;;12.98;10.30;;;;;;;24.36;61.70;100076.47;5583936;31;33560;-57
2022/08/18 04:19:02;;;;;;;12.50;10.10;;;;;;;24.41;61.36;100072.66;5583587;31;34209;-56
2022/08/18 04:22:05;;;;;;;15.57;9.82;;;;;;;24.49;61.19;100072.28;5583199;32;33749;-57
2022/08/18 04:25:08;;;;;;;15.65;9.98;;;;;;;24.57;60.54;100082.13;5583560;31;34193;-57
2022/08/18 04:28:10;;;;;;;13.95;10.23;;;;;;;24.53;60.93;100080.53;5583825;32;34325;-57
2022/08/18 04:31:14;;;;;;;13.40;10.05;;;;;;;24.53;61.71;100075.06;5583092;31;33507;-56
2022/08/18 04:34:19;;;;;;;13.75;10.90;;;;;;;24.57;60.99;100079.41;5583487;32;33777;-56
2022/08/18 04:37:21;;;;;;;15.23;10.40;;;;;;;24.58;60.92;100082.94;5583453;32;33676;-57
2022/08/18 04:40:25;;;;;;;12.32;10.07;;;;;;;24.63;60.74;100087.25;5594004;31;33587;-57
2022/08/18 04:43:29;;;;;;;17.27;11.02;;;;;;;24.73;60.36;100086.53;5603049;31;33807;-57
2022/08/18 04:46:41;;;;;;;13.38;10.93;;;;;;;24.77;60.78;100079.91;5603332;31;33685;-57
2022/08/18 04:49:43;;;;;;;14.70;9.60;;;;;;;24.83;60.75;100080.31;5603278;31;33762;-57
2022/08/18 04:56:06;;;;;;;14.40;11.15;;;;;;;24.79;60.71;100085.00;5603333;31;33665;-57
2022/08/18 04:59:11;;;;;;;14.00;10.93;;;;;;;24.90;60.42;100087.78;5603045;31;33762;-56
2022/08/18 05:02:15;;;;;;;14.15;10.73;;;;;;;24.96;60.25;100091.72;5603120;31;33676;-57
2022/08/18 05:05:17;;;;;;;13.18;10.32;;;;;;;24.96;60.39;100092.50;5603194;31;34359;-56
2022/08/18 05:08:21;;;;;;;12.93;10.65;;;;;;;24.97;60.34;100079.62;5603255;31;34283;-56
2022/08/18 05:11:27;;;;;;;12.00;10.73;;;;;;;24.98;60.20;100078.44;5591871;31;34284;-56
2022/08/18 05:14:30;;;;;;;15.23;10.73;;;;;;;24.95;60.33;100082.72;5590034;31;33196;-56
2022/08/18 05:17:38;;;;;;;18.02;11.27;;;;;;;25.00;60.42;100081.56;5589777;31;33766;-57
2022/08/18 05:20:42;;;;;;;11.50;10.25;;;;;;;25.07;60.35;100078.88;5589314;31;33402;-57
2022/08/18 05:23:47;;;;;;;14.90;10.20;;;;;;;25.12;60.24;100070.28;5587123;31;34428;-57
2022/08/18 05:26:50;;;;;;;14.68;10.50;;;;;;;25.24;59.77;100077.41;5569771;32;33600;-57
2022/08/18 05:29:52;;;;;;;19.37;11.32;;;;;;;25.30;59.67;100084.87;5569468;32;33979;-56
2022/08/18 05:32:54;;;;;;;14.00;11.07;;;;;;;25.51;59.48;100080.59;5569810;32;34398;-57
2022/08/18 05:36:03;;;;;;;14.38;10.98;;;;;;;25.63;59.11;100077.50;5570047;32;33620;-56
2022/08/18 05:39:28;;;;;;;15.07;10.63;;;;;;;25.80;58.49;100075.97;5569450;32;33696;-56
2022/08/18 05:42:35;;;;;;;13.07;10.40;;;;;;;25.88;59.24;100079.50;5569872;32;33698;-57
2022/08/18 05:45:39;;;;;;;11.68;10.48;;;;;;;25.99;57.91;100081.09;5569660;32;33618;-57
2022/08/18 05:48:42;;;;;;;14.02;11.18;;;;;;;26.05;57.71;100086.19;5569925;32;34352;-57
2022/08/18 05:51:47;;;;;;;17.35;10.98;;;;;;;26.06;57.38;100085.81;5569492;32;33729;-57
2022/08/18 05:58:30;;;;;;;13.65;10.73;;;;;;;26.30;57.32;100084.22;5586809;31;34345;-57
2022/08/18 06:01:41;;;;;;;12.57;10.98;;;;;;;26.38;57.12;100079.47;5589218;31;33162;-56
2022/08/18 06:04:50;;;;;;;22.90;11.30;;;;;;;26.46;56.33;100081.06;5588644;31;33589;-56
2022/08/18 06:07:57;;;;;;;20.60;10.57;;;;;;;26.58;56.23;100088.91;5589217;31;33333;-56
2022/08/18 06:11:00;;;;;;;19.83;11.07;;;;;;;26.65;56.02;100094.37;5588642;31;33708;-57
2022/08/18 06:14:02;;;;;;;12.63;10.27;;;;;;;26.74;55.29;100093.19;5589253;31;33569;-56
2022/08/18 06:17:20;;;;;;;20.10;10.77;;;;;;;26.74;55.07;100095.94;5588390;31;33776;-57
2022/08/18 06:20:35;;;;;;;14.60;10.57;;;;;;;26.75;55.13;100095.53;5588377;31;34172;-57
2022/08/18 06:23:43;;;;;;;18.77;11.02;;;;;;;26.84;55.56;100093.16;5587343;31;33488;-58
2022/08/18 06:27:11;;;;;;;22.20;10.98;;;;;;;26.86;54.78;100093.56;5588096;31;34288;-57
2022/08/18 06:30:18;;;;;;;20.15;10.93;;;;;;;26.93;54.78;100101.00;5559318;31;33280;-57
2022/08/18 06:33:45;;;;;;;18.02;10.65;;;;;;;27.00;54.68;100092.72;5588844;31;33485;-57
2022/08/18 06:36:53;;;;;;;23.17;10.90;;;;;;;27.09;54.26;100095.81;5588872;31;33649;-57
2022/08/18 06:39:56;;;;;;;21.42;11.18;;;;;;;27.12;54.25;100100.53;5588983;31;33955;-57
2022/08/18 06:42:59;;;;;;;24.48;11.60;;;;;;;27.21;53.88;100093.84;5588924;31;33747;-57
2022/08/18 06:46:32;;;;;;;19.15;11.05;;;;;;;27.22;54.19;100103.66;5588840;31;33601;-57
2022/08/18 06:49:53;;;;;;;15.57;10.57;;;;;;;27.17;54.25;100096.59;5588603;31;34267;-57
2022/08/18 06:53:02;;;;;;;14.40;10.38;;;;;;;27.28;54.29;100091.03;5588515;31;33767;-58
2022/08/18 06:56:42;;;;;;;17.08;11.02;;;;;;;27.31;53.79;100090.25;5588753;31;33563;-57
2022/08/18 06:59:53;;;;;;;15.65;10.07;;;;;;;27.45;53.54;100092.94;5588396;31;34123;-57
2022/08/18 07:03:06;;;;;;;20.88;10.52;;;;;;;27.44;54.33;100079.56;5588438;31;33237;-57
2022/08/18 07:06:23;;;;;;;14.85;9.60;;;;;;;27.51;54.27;100077.53;5588780;31;33619;-57
2022/08/18 07:09:32;;;;;;;15.15;9.82;;;;;;;27.49;53.06;100068.91;5588290;31;33631;-57
2022/08/18 07:12:35;;;;;;;14.25;9.65;;;;;;;27.57;52.74;100072.41;5588393;31;33772;-57
2022/08/18 07:15:38;;;;;;;23.00;9.40;;;;;;;27.70;51.53;100072.72;5587629;31;34394;-57
2022/08/18 07:18:42;;;;;;;13.80;9.30;;;;;;;27.76;51.78;100071.91;5588230;31;33685;-57
2022/08/18 07:21:59;;;;;;;14.95;9.60;;;;;;;27.89;52.49;100060.41;5588236;31;34302;-57
2022/08/18 07:25:05;;;;;;;20.25;9.73;;;;;;;27.98;51.81;100069.78;5588148;31;33699;-57
2022/08/18 07:28:29;;;;;;;10.27;8.93;;;;;;;28.15;51.79;100070.03;5586932;31;33135;-57
2022/08/18 07:31:38;;;;;;;14.70;9.07;;;;;;;28.16;50.14;100069.62;5587884;31;34242;-57
2022/08/18 07:34:45;;;;;;;11.80;9.15;;;;;;;28.20;49.36;100077.84;5587643;31;33732;-57
2022/08/18 07:37:55;;;;;;;12.52;8.93;;;;;;;28.27;49.25;100077.78;5588175;31;33693;-57
2022/08/18 07:41:05;;;;;;;13.10;9.10;;;;;;;28.24;49.75;100073.09;5558266;31;33552;-57
2022/08/18 07:44:17;;;;;;;14.18;9.25;;;;;;;28.27;49.51;100066.75;5548607;32;34255;-57
2022/08/18 07:47:30;;;;;;;27.67;10.07;;;;;;;28.36;48.75;100061.56;5548849;32;33863;-57
2022/08/18 07:50:43;;;;;;;16.35;9.10;;;;;;;28.34;49.25;100059.22;5566257;32;34374;-57
2022/08/18 07:54:21;;;;;;;28.48;9.75;;;;;;;28.38;49.70;100061.94;5567483;32;33546;-57
2022/08/18 07:57:51;;;;;;;23.12;10.02;;;;;;;28.42;49.41;100065.47;5567154;32;33243;-57
2022/08/18 08:01:18;;;;;;;13.90;9.25;;;;;;;28.47;48.69;100070.53;5567493;32;34341;-58
2022/08/18 08:04:29;;;;;;;17.20;9.13;;;;;;;28.51;48.61;100085.06;5567928;32;33414;-57
2022/08/18 08:07:36;;;;;;;20.55;9.73;;;;;;;28.55;48.42;100085.81;5567548;32;34379;-57
2022/08/18 08:10:50;;;;;;;27.73;9.65;;;;;;;28.57;48.60;100094.44;5560055;32;33407;-57
2022/08/18 08:14:27;;;;;;;14.13;9.75;;;;;;;28.60;48.62;100098.34;5550736;32;34186;-57
2022/08/18 08:17:35;;;;;;;12.63;9.02;;;;;;;28.70;48.59;100107.72;5567342;32;33683;-57
2022/08/18 08:20:48;;;;;;;12.10;8.98;;;;;;;28.72;47.77;100106.13;5567792;32;34281;-57
2022/08/18 08:23:56;;;;;;;14.00;9.35;;;;;;;28.83;47.27;100108.75;5567581;32;34441;-57
2022/08/18 08:27:15;;;;;;;11.25;9.00;;;;;;;28.87;47.15;100103.97;5567409;32;34283;-57
2022/08/18 08:30:19;;;;;;;10.98;8.27;;;;;;;28.89;47.21;100109.09;5549966;32;33115;-57
2022/08/18 08:33:30;;;;;;;14.00;8.90;;;;;;;28.93;47.23;100107.84;5563951;32;34269;-57
2022/08/18 08:36:37;;;;;;;12.13;9.00;;;;;;;28.96;46.70;100101.50;5566657;32;33896;-57
2022/08/18 08:39:46;;;;;;;12.43;8.73;;;;;;;28.97;46.23;100099.53;5557018;32;33768;-57
2022/08/18 08:42:52;;;;;;;18.30;9.30;;;;;;;28.99;45.97;100097.16;5564105;32;33703;-57
2022/08/18 08:46:15;;;;;;;16.25;8.98;;;;;;;29.09;46.67;100099.03;5558085;32;33378;-57
2022/08/18 08:49:29;;;;;;;13.45;9.00;;;;;;;29.08;46.68;100083.66;5558575;32;34241;-57
2022/08/18 08:52:41;;;;;;;9.98;8.27;;;;;;;29.12;46.25;100086.38;5568447;32;33673;-57
2022/08/18 08:55:48;;;;;;;10.98;8.70;;;;;;;29.18;46.11;100093.00;5570062;32;34492;-57
2022/08/18 08:58:57;;;;;;;10.27;9.18;;;;;;;29.25;46.17;100084.63;5569535;32;33707;-58
2022/08/18 09:02:22;;;;;;;14.90;8.82;;;;;;;29.45;45.51;100085.53;5569832;32;33629;-57
2022/08/18 09:05:59;;;;;;;13.60;8.15;;;;;;;29.50;45.06;100082.31;5569821;32;33736;-57
2022/08/18 09:09:10;;;;;;;15.35;8.25;;;;;;;29.58;44.49;100079.44;5567189;32;33701;-57
2022/08/18 09:12:32;;;;;;;13.45;8.63;;;;;;;29.53;44.33;100077.13;5569716;32;33734;-57
2022/08/18 09:15:57;;;;;;;12.75;8.13;;;;;;;29.61;44.23;100073.12;5568948;32;33536;-57
2022/08/18 09:19:36;;;;;;;22.52;9.85;;;;;;;29.68;44.09;100061.94;5569346;31;33759;-57
2022/08/18 09:23:01;;;;;;;15.43;8.55;;;;;;;29.71;44.22;100063.87;5568958;32;34317;-57
2022/08/18 09:26:34;;;;;;;12.48;8.15;;;;;;;29.80;43.19;100060.56;5563132;32;34206;-57
2022/08/18 09:29:51;;;;;;;9.07;8.18;;;;;;;29.78;43.71;100049.19;5560545;32;34447;-57
2022/08/18 09:33:13;;;;;;;16.10;9.05;;;;;;;29.88;43.59;100060.03;5566491;32;34033;-57
2022/08/18 09:36:46;;;;;;;11.98;7.47;;;;;;;29.84;44.08;100053.81;5556868;32;33684;-57
2022/08/18 09:44:11;;;;;;;12.10;7.45;;;;;;;29.93;42.83;100053.25;5549927;32;34555;-57
2022/08/18 09:47:27;;;;;;;15.18;7.95;;;;;;;30.06;42.45;100050.66;5549676;32;33885;-57
2022/08/18 09:50:35;;;;;;;12.48;8.43;;;;;;;30.05;41.91;100043.59;5558971;32;34603;-57
2022/08/18 09:53:45;;;;;;;9.93;8.23;;;;;;;30.19;41.71;100032.28;5563490;32;33732;-57
2022/08/18 09:56:48;;;;;;;10.20;8.10;;;;;;;30.31;41.76;100026.16;5566603;32;34337;-57
2022/08/18 10:00:18;;;;;;;9.50;7.05;;;;;;;30.21;41.44;100010.56;5560039;32;33799;-58
2022/08/18 10:03:25;;;;;;;15.40;7.78;;;;;;;30.35;41.13;100004.75;5567948;32;34511;-57
2022/08/18 10:06:37;;;;;;;10.07;7.50;;;;;;;30.33;41.52;99989.78;5556434;32;34374;-58
2022/08/18 10:10:16;;;;;;;9.93;7.53;;;;;;;30.36;40.76;99994.47;5554503;32;34540;-57
2022/08/18 10:14:05;;;;;;;12.52;7.32;;;;;;;30.40;41.01;99990.44;5541450;32;34400;-57
2022/08/18 10:17:59;;;;;;;9.40;6.62;;;;;;;30.49;39.74;99995.38;5553877;31;33768;-57
2022/08/18 10:21:07;;;;;;;12.88;7.70;;;;;;;30.66;39.65;99985.16;5525965;32;33576;-57
2022/08/18 10:24:10;;;;;;;11.12;7.65;;;;;;;30.66;39.83;99990.69;5527945;32;34404;-57
2022/08/18 10:27:47;;;;;;;10.57;7.15;;;;;;;30.68;39.54;99993.81;5553553;32;33571;-57
2022/08/18 10:31:01;;;;;;;8.88;6.72;;;;;;;30.81;39.08;99986.47;5554359;32;33609;-57
2022/08/18 10:34:12;;;;;;;10.45;6.47;;;;;;;30.94;38.87;99994.88;5557823;32;33655;-57
2022/08/18 10:37:46;;;;;;;9.98;6.07;;;;;;;30.83;37.94;99992.34;5555184;32;34485;-57
2022/08/18 10:41:30;;;;;;;7.62;5.80;;;;;;;30.86;37.33;99979.63;5551907;32;33751;-57
2022/08/18 10:44:42;;;;;;;11.98;6.82;;;;;;;30.77;37.78;99980.22;5550530;32;33683;-57
2022/08/18 10:48:03;;;;;;;11.80;6.68;;;;;;;30.93;38.03;99975.91;5556659;32;34365;-57
2022/08/18 10:51:24;;;;;;;9.20;6.12;;;;;;;31.13;37.79;99977.44;5549762;32;33731;-57
2022/08/18 10:55:06;;;;;;;12.13;6.47;;;;;;;31.05;37.24;99967.72;5551591;32;34423;-57
2022/08/18 10:59:10;;;;;;;10.00;6.25;;;;;;;31.03;37.29;99963.84;5549134;32;33643;-57
2022/08/18 11:02:54;;;;;;;12.30;5.93;;;;;;;31.21;37.10;99964.22;5524504;32;34154;-58
2022/08/18 11:06:19;;;;;;;8.35;5.95;;;;;;;31.19;36.91;99969.38;5559050;32;33705;-57
2022/08/18 11:09:42;;;;;;;6.85;5.87;;;;;;;31.22;35.84;99960.22;5549919;32;33612;-57
2022/08/18 11:13:20;;;;;;;8.25;5.60;;;;;;;31.29;35.75;99962.03;5568861;32;33733;-57
2022/08/18 11:16:46;;;;;;;7.60;5.62;;;;;;;31.44;36.15;99952.22;5553346;32;33729;-57
2022/08/18 11:19:51;;;;;;;7.80;5.87;;;;;;;31.47;35.68;99951.34;5548883;32;33248;-57
2022/08/18 11:22:57;;;;;;;9.30;5.82;;;;;;;31.41;35.39;99946.78;5549310;32;33805;-57
2022/08/18 11:26:13;;;;;;;7.82;5.87;;;;;;;31.57;35.17;99946.75;5550000;32;34347;-57
2022/08/18 11:29:28;;;;;;;10.15;5.70;;;;;;;31.62;35.14;99939.91;5553593;31;33652;-57
2022/08/18 11:32:39;;;;;;;8.70;6.53;;;;;;;31.55;35.13;99935.31;5562886;32;33485;-57
2022/08/18 11:35:57;;;;;;;10.35;5.65;;;;;;;31.56;35.52;99929.38;5554399;32;33657;-57
2022/08/18 11:39:02;;;;;;;8.18;5.57;;;;;;;31.74;35.39;99920.56;5548480;32;34309;-58
2022/08/18 11:42:08;;;;;;;7.20;5.03;;;;;;;31.76;34.63;99920.94;5553535;32;32989;-57
2022/08/18 11:45:32;;;;;;;7.82;5.00;;;;;;;31.75;34.04;99916.59;5549070;32;33634;-57
2022/08/18 11:48:41;;;;;;;8.60;4.07;;;;;;;31.71;33.52;99907.59;5554465;32;34350;-57
2022/08/18 11:52:22;;;;;;;7.18;4.72;;;;;;;31.73;32.38;99907.16;5552836;32;34490;-57
2022/08/18 11:55:36;;;;;;;5.78;5.18;;;;;;;31.91;33.01;99901.16;5558286;31;33757;-57
2022/08/18 11:59:00;;;;;;;10.23;5.00;;;;;;;31.97;33.35;99900.19;5555522;32;32266;-57
2022/08/18 12:02:04;;;;;;;6.80;5.10;;;;;;;32.05;33.05;99903.53;5555268;32;33770;-57
2022/08/18 12:05:06;;;;;;;11.23;5.30;;;;;;;32.01;33.00;99900.09;5548000;32;33708;-57
2022/08/18 12:08:34;;;;;;;8.32;5.00;;;;;;;32.21;33.38;99897.16;5549072;32;34349;-57
2022/08/18 12:12:04;;;;;;;8.15;4.82;;;;;;;32.16;33.98;99886.63;5551669;31;32193;-58
2022/08/18 12:15:12;;;;;;;6.85;4.60;;;;;;;32.23;31.29;99886.41;5554491;32;34337;-57
2022/08/18 12:18:34;;;;;;;6.25;4.50;;;;;;;32.10;31.37;99872.50;5561045;32;33945;-57
2022/08/18 12:21:43;;;;;;;7.22;4.43;;;;;;;32.10;31.69;99871.75;5565944;32;34556;-57
2022/08/18 12:24:46;;;;;;;8.70;4.40;;;;;;;32.13;31.92;99874.41;5559339;32;33986;-57
2022/08/18 12:27:49;;;;;;;6.78;4.30;;;;;;;32.21;30.86;99866.66;5551604;32;34430;-57
2022/08/18 12:30:52;;;;;;;9.27;4.32;;;;;;;32.38;30.80;99865.34;5556682;32;33727;-57
2022/08/18 12:33:58;;;;;;;13.30;5.43;;;;;;;32.25;30.59;99840.37;5560491;32;33610;-57
2022/08/18 12:37:02;;;;;;;14.03;5.43;;;;;;;32.23;30.83;99842.03;5562916;32;32108;-57
2022/08/18 12:40:11;;;;;;;6.97;4.65;;;;;;;32.27;30.94;99835.16;5550668;32;33264;-58
2022/08/18 12:43:13;;;;;;;6.15;4.85;;;;;;;32.20;30.77;99838.16;5548998;32;33353;-57
2022/08/18 12:46:17;;;;;;;9.27;5.05;;;;;;;32.20;31.65;99837.38;5550799;32;33602;-57
2022/08/18 12:49:22;;;;;;;10.77;4.75;;;;;;;32.30;31.51;99858.47;5563440;32;34448;-57
2022/08/18 12:52:24;;;;;;;10.27;4.68;;;;;;;32.26;30.69;99858.56;5566745;32;33766;-57
2022/08/18 12:55:30;;;;;;;8.18;4.53;;;;;;;32.34;30.16;99861.91;5550748;32;33696;-57
2022/08/18 12:58:32;;;;;;;7.62;4.57;;;;;;;32.33;29.83;99868.69;5550808;32;33419;-57
2022/08/18 13:01:38;;;;;;;;;;;;;;;32.44;29.71;99868.38;5556406;32;34407;-58
2022/08/18 13:04:40;;;;;;;8.55;4.85;;;;;;;32.45;29.98;99872.69;5569615;32;34809;-58
2022/08/18 13:07:45;;;;;;;7.05;4.60;;;;;;;32.43;30.17;99869.59;5562669;32;33738;-57
2022/08/18 13:10:49;;;;;;;7.00;4.70;;;;;;;32.48;29.89;99874.59;5551246;32;33845;-57
2022/08/18 13:14:00;;;;;;;9.18;4.57;;;;;;;32.61;30.29;99880.16;5556014;32;33651;-58
2022/08/18 13:17:10;;;;;;;7.82;4.50;;;;;;;32.70;29.97;99877.50;5549936;32;33761;-57
2022/08/18 13:20:32;;;;;;;13.50;4.95;;;;;;;32.62;29.48;99882.50;5556556;32;33363;-57
2022/08/18 13:23:38;;;;;;;9.32;4.65;;;;;;;32.48;29.97;99878.16;5560952;32;33426;-57
2022/08/18 13:26:44;;;;;;;6.90;4.87;;;;;;;32.51;30.03;99882.03;5559644;32;34396;-57
2022/08/18 13:29:47;;;;;;;11.00;4.80;;;;;;;32.51;30.88;99876.47;5563926;32;33676;-58
2022/08/18 13:32:53;;;;;;;9.88;4.87;;;;;;;32.51;30.61;99879.25;5558342;32;33609;-57
2022/08/18 13:36:01;;;;;;;6.93;5.03;;;;;;;32.48;31.55;99880.94;5554118;32;33712;-57
2022/08/18 13:39:03;;;;;;;10.98;4.53;;;;;;;32.46;31.30;99879.81;5557883;32;33662;-58
2022/08/18 13:42:09;;;;;;;7.70;4.93;;;;;;;32.53;31.47;99871.28;5550264;32;33828;-57
2022/08/18 13:45:28;;;;;;;7.87;5.15;;;;;;;32.69;31.54;99860.06;5557807;32;34338;-57
2022/08/18 13:48:34;;;;;;;12.18;5.07;;;;;;;32.66;31.95;99868.50;5564408;32;33227;-57
2022/08/18 13:51:36;;;;;;;16.70;5.47;;;;;;;32.60;31.84;99875.84;5551069;32;34389;-57
2022/08/18 13:54:44;;;;;;;8.40;5.37;;;;;;;32.51;32.92;99876.47;5552753;32;33823;-58
2022/08/18 13:57:54;;;;;;;10.63;5.10;;;;;;;32.48;31.97;99871.81;5557463;32;33755;-58
2022/08/18 14:01:01;;;;;;;12.10;4.80;;;;;;;32.43;32.03;99873.16;5556823;32;33708;-57
2022/08/18 14:04:23;;;;;;;7.28;4.93;;;;;;;32.54;31.87;99870.06;5550085;32;34384;-57
2022/08/18 14:07:30;;;;;;;11.02;4.70;;;;;;;32.44;31.62;99877.47;5560143;32;33655;-57
2022/08/18 14:10:37;;;;;;;9.73;4.78;;;;;;;32.55;30.69;99876.38;5552724;32;33802;-57
2022/08/18 14:13:40;;;;;;;12.40;5.10;;;;;;;32.54;30.56;99874.81;5553360;32;33903;-57
2022/08/18 14:16:46;;;;;;;11.50;4.60;;;;;;;32.59;30.45;99877.84;5552581;32;34290;-57
2022/08/18 14:26:54;;;;;;;12.05;5.22;;;;;;;32.65;31.03;99878.84;5555550;32;33368;-58
2022/08/18 14:29:57;;;;;;;12.90;5.07;;;;;;;32.63;30.89;99881.28;5551048;32;32973;-58
2022/08/18 14:33:05;;;;;;;7.80;4.75;;;;;;;32.66;30.61;99893.50;5552923;32;33652;-57
2022/08/18 14:36:13;;;;;;;10.23;4.80;;;;;;;32.74;30.47;99898.34;5565072;32;34401;-58
2022/08/18 14:39:15;;;;;;;6.40;4.37;;;;;;;32.71;30.68;99888.13;5565958;32;34211;-57
